Llano Quemado, New Mexico
Current Conditions -  °F | °C
As of 10:55 AM on Monday 22 Dec 2014 (Local Time) from KSKX Reporting Station
Overcast Overcast  
Wind Chill:   Ceiling: 4500
Heat Index:   Visibility: 10mi
Dew Point: -2°   Wind: 13mph
Humidity: 61%   Direction: 220°SW
Pressure: 29.77"   Gusts: NA
Location:  36.2692°N, 105.543°W
Report Text: KSKX 221755Z AUTO 22011KT 10SM OVC045 05/M02 A2977 RMK AO1 10050 21010 57020
Loading
Personal Weather Stations






























Interactive Weather Map New forecast layout! Learn more

10-Day Weather Forecast

Advertisements
Track Severe Weather on mobile